| time (UTC) | temp F | wind direction | speed MPH | gust MPH | rain 1hr in | rain 24hr in | rain mn in | humidity % | barometer mb |
| 20260505172506 | 36 | 233 | 0.0 | 3.0 | 0.09 | 0.62 | 0.56 | 92 | 1012.3 |
| 20260505172005 | 36 | 233 | 1.0 | 3.0 | 0.10 | 0.62 | 0.56 | 92 | 1012.6 |
| 20260505171005 | 36 | 165 | 2.0 | 5.0 | 0.11 | 0.61 | 0.55 | 93 | 1012.9 |
| 20260505170505 | 36 | 311 | 0.0 | 5.0 | 0.11 | 0.60 | 0.54 | 93 | 1012.8 |
| 20260505170005 | 36 | 311 | 1.0 | 5.0 | 0.11 | 0.59 | 0.53 | 93 | 1012.7 |
| 20260505165006 | 36 | 315 | 0.0 | 1.0 | 0.11 | 0.57 | 0.51 | 93 | 1012.5 |
| 20260505164504 | 35 | 315 | 0.0 | 1.0 | 0.12 | 0.57 | 0.51 | 93 | 1012.5 |
| 20260505164005 | 35 | 315 | 0.0 | 1.0 | 0.12 | 0.56 | 0.50 | 93 | 1012.4 |
| 20260505163505 | 35 | 315 | 0.0 | 2.0 | 0.12 | 0.55 | 0.49 | 93 | 1012.4 |
| 20260505163005 | 35 | 315 | 0.0 | 2.0 | 0.12 | 0.54 | 0.48 | 93 | 1012.4 |
| 20260505162506 | 35 | 315 | 0.0 | 1.0 | 0.12 | 0.53 | 0.47 | 93 | 1012.5 |
| 20260505162005 | 35 | 315 | 0.0 | 0.0 | 0.12 | 0.52 | 0.46 | 93 | 1012.4 |
| 20260505161005 | 35 | 315 | 0.0 | 1.0 | 0.12 | 0.50 | 0.44 | 93 | 1012.4 |
| 20260505160505 | 35 | 315 | 0.0 | 0.0 | 0.12 | 0.49 | 0.43 | 93 | 1012.6 |
| 20260505153005 | 34 | 315 | 1.0 | 3.0 | 0.08 | 0.43 | 0.37 | 93 | 1012.5 |
| 20260505152504 | 34 | 315 | 0.0 | 1.0 | 0.07 | 0.42 | 0.36 | 93 | 1012.5 |
| 20260505151504 | 34 | 315 | 0.0 | 1.0 | 0.05 | 0.40 | 0.34 | 93 | 1012.5 |
| 20260505151004 | 34 | 315 | 0.0 | 1.0 | 0.04 | 0.39 | 0.33 | 93 | 1012.5 |
| 20260505150505 | 34 | 315 | 0.0 | 1.0 | 0.03 | 0.38 | 0.32 | 93 | 1012.5 |
| 20260505140504 | 33 | 315 | 0.0 | 0.0 | 0.01 | 0.35 | 0.29 | 93 | 1012.2 |
| 20260505124004 | 33 | 315 | 0.0 | 1.0 | 0.02 | 0.34 | 0.28 | 92 | 1011.1 |
| 20260505123505 | 33 | 315 | 0.0 | 2.0 | 0.02 | 0.34 | 0.28 | 92 | 1011.1 |
| 20260505123004 | 33 | 315 | 0.0 | 2.0 | 0.03 | 0.34 | 0.28 | 92 | 1011.1 |
| 20260505122504 | 33 | 315 | 0.0 | 3.0 | 0.03 | 0.34 | 0.28 | 92 | 1011.0 |
| 20260505122004 | 33 | 315 | 1.0 | 3.0 | 0.03 | 0.34 | 0.28 | 92 | 1011.0 |
| 20260505121505 | 33 | 315 | 1.0 | 3.0 | 0.03 | 0.34 | 0.28 | 91 | 1010.9 |
| 20260505121005 | 34 | 315 | 0.0 | 5.0 | 0.03 | 0.34 | 0.28 | 91 | 1010.8 |
| 20260505120006 | 34 | 315 | 3.0 | 7.0 | 0.04 | 0.34 | 0.28 | 92 | 1010.9 |
| 20260505115504 | 34 | 315 | 3.0 | 6.0 | 0.03 | 0.33 | 0.27 | 92 | 1010.8 |
| 20260505114504 | 35 | 318 | 5.0 | 7.0 | 0.03 | 0.32 | 0.26 | 92 | 1010.7 |
| 20260505114005 | 35 | 318 | 3.0 | 7.0 | 0.03 | 0.32 | 0.26 | 92 | 1010.7 |
| 20260505113504 | 35 | 316 | 3.0 | 6.0 | 0.04 | 0.32 | 0.26 | 92 | 1010.5 |
| 20260505113005 | 35 | 320 | 2.0 | 6.0 | 0.03 | 0.31 | 0.25 | 92 | 1010.4 |
| 20260505112504 | 35 | 320 | 2.0 | 7.0 | 0.03 | 0.31 | 0.25 | 92 | 1010.3 |
| 20260505112007 | 35 | 320 | 3.0 | 8.0 | 0.04 | 0.31 | 0.25 | 92 | 1010.2 |
| 20260505111506 | 35 | 317 | 3.0 | 8.0 | 0.04 | 0.31 | 0.25 | 92 | 1010.0 |
| 20260505110507 | 35 | 352 | 3.0 | 7.0 | 0.04 | 0.30 | 0.24 | 92 | 1009.8 |
| 20260505102007 | 36 | 26 | 1.0 | 10.0 | 0.05 | 0.27 | 0.21 | 90 | 1009.5 |
| 20260505101506 | 36 | 52 | 5.0 | 10.0 | 0.05 | 0.27 | 0.21 | 90 | 1009.4 |
| 20260505100507 | 37 | 16 | 5.0 | 12.0 | 0.06 | 0.26 | 0.20 | 90 | 1009.2 |
| 20260505100004 | 37 | 23 | 6.0 | 12.0 | 0.05 | 0.25 | 0.19 | 90 | 1009.2 |
| 20260505095007 | 38 | 17 | 4.0 | 13.0 | 0.05 | 0.24 | 0.18 | 90 | 1009.1 |
| 20260505094506 | 38 | 17 | 6.0 | 15.0 | 0.05 | 0.24 | 0.18 | 90 | 1008.9 |
| 20260505094006 | 38 | 41 | 5.0 | 20.0 | 0.04 | 0.23 | 0.17 | 90 | 1008.9 |
| 20260505093506 | 38 | 56 | 9.0 | 20.0 | 0.05 | 0.23 | 0.17 | 89 | 1008.9 |
| 20260505093006 | 39 | 50 | 8.0 | 15.0 | 0.06 | 0.23 | 0.17 | 90 | 1008.8 |
| 20260505092507 | 39 | 53 | 6.0 | 13.0 | 0.06 | 0.23 | 0.17 | 90 | 1008.6 |
| 20260505091506 | 40 | 325 | 3.0 | 9.0 | 0.06 | 0.22 | 0.16 | 90 | 1008.5 |
| 20260505091006 | 40 | 338 | 2.0 | 9.0 | 0.07 | 0.21 | 0.15 | 90 | 1008.4 |
| 20260505090506 | 40 | 337 | 2.0 | 10.0 | 0.08 | 0.21 | 0.15 | 90 | 1008.3 |
| 20260505090006 | 41 | 325 | 2.0 | 10.0 | 0.08 | 0.20 | 0.14 | 89 | 1008.4 |
| 20260505085506 | 41 | 336 | 3.0 | 12.0 | 0.08 | 0.20 | 0.14 | 89 | 1008.5 |
| 20260505085006 | 41 | 16 | 3.0 | 12.0 | 0.07 | 0.19 | 0.13 | 89 | 1008.5 |
| 20260505084506 | 41 | 49 | 5.0 | 12.0 | 0.07 | 0.19 | 0.13 | 89 | 1008.5 |
| 20260505084006 | 41 | 355 | 1.0 | 7.0 | 0.07 | 0.19 | 0.13 | 89 | 1008.3 |
| 20260505083007 | 42 | 343 | 2.0 | 7.0 | 0.06 | 0.17 | 0.11 | 89 | 1008.3 |
| 20260505082506 | 42 | 53 | 1.0 | 7.0 | 0.06 | 0.17 | 0.11 | 89 | 1008.2 |
| 20260505082006 | 42 | 8 | 1.0 | 7.0 | 0.06 | 0.17 | 0.11 | 89 | 1008.2 |
| 20260505081005 | 42 | 297 | 2.0 | 7.0 | 0.04 | 0.14 | 0.08 | 88 | 1008.1 |
| 20260505080506 | 42 | 332 | 2.0 | 7.0 | 0.03 | 0.13 | 0.07 | 88 | 1008.1 |
| 20260505080007 | 42 | 336 | 2.0 | 9.0 | 0.02 | 0.12 | 0.06 | 88 | 1008.1 |
| 20260505075506 | 42 | 332 | 3.0 | 10.0 | 0.02 | 0.12 | 0.06 | 88 | 1008.1 |
| 20260505075007 | 42 | 317 | 5.0 | 10.0 | 0.02 | 0.12 | 0.06 | 87 | 1008.1 |
| 20260505074505 | 42 | 326 | 5.0 | 12.0 | 0.03 | 0.12 | 0.06 | 87 | 1008.1 |
| 20260505074006 | 42 | 327 | 4.0 | 12.0 | 0.03 | 0.12 | 0.06 | 87 | 1008.1 |
| 20260505073505 | 42 | 15 | 5.0 | 9.0 | 0.04 | 0.12 | 0.06 | 87 | 1008.0 |
| 20260505073006 | 43 | 320 | 3.0 | 12.0 | 0.04 | 0.11 | 0.05 | 86 | 1008.1 |
| 20260505072507 | 43 | 324 | 3.0 | 12.0 | 0.05 | 0.11 | 0.05 | 86 | 1008.0 |
| 20260505072005 | 43 | 331 | 6.0 | 14.0 | 0.05 | 0.11 | 0.05 | 86 | 1008.0 |
| 20260505071506 | 43 | 332 | 3.0 | 14.0 | 0.05 | 0.11 | 0.05 | 85 | 1007.8 |
| 20260505070506 | 43 | 336 | 1.0 | 12.0 | 0.04 | 0.10 | 0.04 | 85 | 1007.9 |
| 20260505070005 | 43 | 11 | 2.0 | 12.0 | 0.04 | 0.10 | 0.04 | 84 | 1007.8 |
| 20260505065506 | 44 | 338 | 4.0 | 12.0 | 0.04 | 0.10 | 0.04 | 84 | 1007.9 |
| 20260505064505 | 44 | 344 | 5.0 | 15.0 | 0.03 | 0.09 | 0.03 | 83 | 1007.8 |
| 20260505064007 | 44 | 320 | 6.0 | 15.0 | 0.03 | 0.09 | 0.03 | 82 | 1007.8 |
| 20260505063506 | 45 | 316 | 4.0 | 12.0 | 0.02 | 0.08 | 0.02 | 81 | 1007.7 |
| 20260505062506 | 46 | 330 | 5.0 | 12.0 | 0.00 | 0.06 | 0.00 | 78 | 1007.6 |
| 20260505062005 | 46 | 35 | 5.0 | 13.0 | 0.00 | 0.06 | 0.00 | 78 | 1007.5 |
| 20260505060506 | 48 | 339 | 5.0 | 12.0 | 0.00 | 0.06 | 0.00 | 83 | 1007.1 |
| 20260505055506 | 48 | 244 | 0.0 | 1.0 | 0.00 | 0.06 | 0.06 | 84 | 1007.0 |
| 20260505055005 | 48 | 244 | 0.0 | 1.0 | 0.00 | 0.06 | 0.06 | 84 | 1006.8 |
| 20260505054507 | 48 | 244 | 0.0 | 1.0 | 0.00 | 0.06 | 0.06 | 84 | 1006.6 |
| 20260505054006 | 48 | 244 | 0.0 | 0.0 | 0.00 | 0.06 | 0.06 | 84 | 1006.4 |
| 20260505053505 | 48 | 244 | 0.0 | 0.0 | 0.00 | 0.06 | 0.06 | 84 | 1006.2 |
| 20260505053006 | 48 | 244 | 0.0 | 0.0 | 0.00 | 0.06 | 0.06 | 83 | 1006.2 |
| 20260505052506 | 48 | 244 | 0.0 | 0.0 | 0.00 | 0.06 | 0.06 | 82 | 1006.1 |
| 20260505052006 | 48 | 244 | 0.0 | 0.0 | 0.00 | 0.06 | 0.06 | 82 | 1006.0 |
| 20260505051506 | 48 | 244 | 0.0 | 0.0 | 0.00 | 0.06 | 0.06 | 81 | 1005.9 |
| 20260505050506 | 48 | 244 | 0.0 | 0.0 | 0.00 | 0.06 | 0.06 | 80 | 1005.8 |
| 20260505041505 | 49 | 244 | 3.0 | 6.0 | 0.00 | 0.06 | 0.06 | 78 | 1005.6 |
| 20260505041005 | 49 | 244 | 2.0 | 7.0 | 0.00 | 0.06 | 0.06 | 78 | 1005.5 |
| 20260505040506 | 50 | 244 | 2.0 | 7.0 | 0.00 | 0.06 | 0.06 | 78 | 1005.5 |
| 20260505040005 | 50 | 244 | 3.0 | 7.0 | 0.00 | 0.06 | 0.06 | 78 | 1005.4 |
| 20260505035506 | 50 | 244 | 2.0 | 5.0 | 0.00 | 0.06 | 0.06 | 78 | 1005.4 |
| 20260505035005 | 50 | 244 | 2.0 | 5.0 | 0.00 | 0.06 | 0.06 | 79 | 1005.4 |
| 20260505034505 | 50 | 244 | 1.0 | 8.0 | 0.00 | 0.06 | 0.06 | 79 | 1005.4 |
| 20260505034006 | 50 | 244 | 3.0 | 8.0 | 0.00 | 0.06 | 0.06 | 79 | 1005.4 |
| 20260505033506 | 50 | 254 | 3.0 | 7.0 | 0.00 | 0.06 | 0.06 | 80 | 1005.4 |
| 20260505033005 | 50 | 281 | 1.0 | 3.0 | 0.00 | 0.06 | 0.06 | 79 | 1005.3 |
| 20260505032506 | 50 | 282 | 0.0 | 0.0 | 0.00 | 0.06 | 0.06 | 79 | 1005.4 |
| 20260505032006 | 50 | 282 | 0.0 | 3.0 | 0.00 | 0.06 | 0.06 | 79 | 1005.2 |
| 20260505030505 | 49 | 282 | 1.0 | 3.0 | 0.00 | 0.06 | 0.06 | 82 | 1005.2 |
| 20260505030005 | 49 | 282 | 1.0 | 3.0 | 0.00 | 0.06 | 0.06 | 83 | 1005.1 |
| 20260505025505 | 49 | 282 | 1.0 | 3.0 | 0.00 | 0.06 | 0.06 | 83 | 1004.9 |
| 20260505025005 | 49 | 282 | 1.0 | 3.0 | 0.00 | 0.06 | 0.06 | 84 | 1004.7 |
| 20260505024505 | 49 | 282 | 0.0 | 2.0 | 0.00 | 0.06 | 0.06 | 84 | 1004.5 |
| 20260505024005 | 49 | 282 | 0.0 | 2.0 | 0.00 | 0.06 | 0.06 | 84 | 1004.3 |
| 20260505023505 | 49 | 282 | 0.0 | 3.0 | 0.00 | 0.06 | 0.06 | 83 | 1004.3 |
| 20260505022505 | 49 | 282 | 1.0 | 5.0 | 0.01 | 0.06 | 0.06 | 83 | 1004.1 |
| 20260505022005 | 50 | 282 | 1.0 | 5.0 | 0.01 | 0.06 | 0.06 | 82 | 1004.0 |
| 20260505021506 | 50 | 282 | 0.0 | 6.0 | 0.01 | 0.06 | 0.06 | 81 | 1003.8 |
| 20260505021005 | 50 | 282 | 2.0 | 6.0 | 0.02 | 0.06 | 0.06 | 81 | 1003.8 |
| 20260505020505 | 50 | 278 | 2.0 | 10.0 | 0.02 | 0.06 | 0.06 | 80 | 1003.6 |
| 20260505020005 | 50 | 284 | 3.0 | 10.0 | 0.02 | 0.06 | 0.06 | 80 | 1003.7 |
| 20260505015505 | 50 | 294 | 5.0 | 10.0 | 0.02 | 0.06 | 0.06 | 81 | 1003.9 |
| 20260505015006 | 49 | 273 | 6.0 | 10.0 | 0.02 | 0.06 | 0.06 | 82 | 1003.9 |
| 20260505013505 | 49 | 200 | 3.0 | 9.0 | 0.03 | 0.06 | 0.06 | 81 | 1003.7 |
| 20260505013005 | 50 | 215 | 4.0 | 9.0 | 0.03 | 0.06 | 0.06 | 81 | 1003.8 |
| 20260505012505 | 49 | 217 | 5.0 | 10.0 | 0.02 | 0.05 | 0.05 | 81 | 1003.9 |
| 20260505012006 | 49 | 217 | 6.0 | 10.0 | 0.02 | 0.05 | 0.05 | 81 | 1003.8 |
| 20260505011505 | 50 | 232 | 3.0 | 13.0 | 0.02 | 0.05 | 0.05 | 81 | 1003.9 |
| 20260505011005 | 50 | 251 | 4.0 | 13.0 | 0.02 | 0.05 | 0.05 | 80 | 1004.0 |
| 20260505010505 | 50 | 272 | 8.0 | 13.0 | 0.01 | 0.04 | 0.04 | 79 | 1004.1 |
| 20260505005505 | 51 | 294 | 7.0 | 12.0 | 0.01 | 0.04 | 0.04 | 79 | 1004.0 |
| 20260505005005 | 51 | 289 | 7.0 | 12.0 | 0.01 | 0.04 | 0.04 | 78 | 1004.0 |
| 20260505004505 | 51 | 285 | 6.0 | 15.0 | 0.01 | 0.04 | 0.04 | 77 | 1003.9 |
| 20260505004005 | 51 | 295 | 7.0 | 16.0 | 0.00 | 0.03 | 0.03 | 76 | 1003.8 |
| 20260505003505 | 52 | 299 | 8.0 | 16.0 | 0.00 | 0.03 | 0.03 | 75 | 1003.9 |
| 20260505003005 | 53 | 308 | 8.0 | 16.0 | 0.00 | 0.03 | 0.03 | 73 | 1003.7 |
| 20260505002505 | 53 | 313 | 7.0 | 13.0 | 0.01 | 0.03 | 0.03 | 72 | 1003.7 |
| 20260505002006 | 53 | 316 | 4.0 | 12.0 | 0.02 | 0.03 | 0.03 | 72 | 1003.7 |
| 20260505001505 | 53 | 299 | 6.0 | 12.0 | 0.02 | 0.03 | 0.03 | 72 | 1003.5 |
| 20260505001005 | 53 | 307 | 5.0 | 12.0 | 0.03 | 0.03 | 0.03 | 73 | 1003.4 |
| 20260505000505 | 54 | 306 | 4.0 | 9.0 | 0.03 | 0.03 | 0.03 | 74 | 1003.4 |
| 20260505000006 | 53 | 287 | 5.0 | 8.0 | 0.03 | 0.03 | 0.03 | 75 | 1003.4 |
| 20260504235506 | 54 | 261 | 0.0 | 3.0 | 0.03 | 0.03 | 0.03 | 77 | 1003.2 |
| 20260504235005 | 54 | 261 | 0.0 | 1.0 | 0.03 | 0.03 | 0.03 | 75 | 1003.1 |
| 20260504234505 | 54 | 261 | 0.0 | 1.0 | 0.03 | 0.03 | 0.03 | 71 | 1003.2 |
| 20260504234006 | 54 | 261 | 0.0 | 3.0 | 0.03 | 0.03 | 0.03 | 71 | 1003.2 |
| 20260504233505 | 54 | 261 | 0.0 | 3.0 | 0.03 | 0.03 | 0.03 | 71 | 1003.2 |
| 20260504233005 | 55 | 261 | 0.0 | 10.0 | 0.03 | 0.03 | 0.03 | 66 | 1003.2 |
| 20260504232505 | 55 | 261 | 1.0 | 12.0 | 0.02 | 0.02 | 0.02 | 64 | 1003.4 |
| 20260504232006 | 56 | 275 | 8.0 | 20.0 | 0.01 | 0.01 | 0.01 | 59 | 1003.3 |
| 20260504231505 | 57 | 260 | 10.0 | 20.0 | 0.01 | 0.01 | 0.01 | 59 | 1003.3 |
| 20260504231005 | 60 | 258 | 11.0 | 20.0 | 0.00 | 0.00 | 0.00 | 50 | 1003.0 |
| 20260504230505 | 61 | 258 | 7.0 | 13.0 | 0.00 | 0.00 | 0.00 | 45 | 1002.6 |
| 20260504230005 | 60 | 284 | 6.0 | 13.0 | 0.00 | 0.00 | 0.00 | 44 | 1002.4 |
| 20260504225505 | 60 | 293 | 7.0 | 13.0 | 0.00 | 0.00 | 0.00 | 45 | 1002.1 |
| 20260504225005 | 60 | 285 | 5.0 | 13.0 | 0.00 | 0.00 | 0.00 | 45 | 1002.1 |
| 20260504224505 | 61 | 289 | 7.0 | 14.0 | 0.00 | 0.00 | 0.00 | 44 | 1001.9 |
| 20260504224005 | 61 | 302 | 6.0 | 18.0 | 0.00 | 0.00 | 0.00 | 44 | 1001.7 |
| 20260504223505 | 61 | 304 | 9.0 | 18.0 | 0.00 | 0.00 | 0.00 | 43 | 1001.7 |
| 20260504222505 | 63 | 304 | 7.0 | 16.0 | 0.00 | 0.00 | 0.00 | 41 | 1001.7 |
| 20260504222005 | 63 | 324 | 5.0 | 16.0 | 0.00 | 0.00 | 0.00 | 41 | 1001.6 |
| 20260504221005 | 64 | 349 | 5.0 | 10.0 | 0.00 | 0.00 | 0.00 | 42 | 1001.5 |
| 20260504220505 | 63 | 42 | 5.0 | 10.0 | 0.00 | 0.00 | 0.00 | 42 | 1001.6 |
| 20260504220005 | 64 | 55 | 6.0 | 10.0 | 0.00 | 0.00 | 0.00 | 41 | 1001.7 |
| 20260504215505 | 63 | 338 | 2.0 | 9.0 | 0.00 | 0.00 | 0.00 | 41 | 1001.8 |
| 20260504215005 | 64 | 7 | 6.0 | 9.0 | 0.00 | 0.00 | 0.00 | 40 | 1001.9 |
| 20260504214005 | 63 | 26 | 2.0 | 5.0 | 0.00 | 0.00 | 0.00 | 41 | 1002.1 |
| 20260504213005 | 62 | 35 | 1.0 | 7.0 | 0.00 | 0.00 | 0.00 | 42 | 1002.0 |
| 20260504212505 | 62 | 61 | 2.0 | 7.0 | 0.00 | 0.00 | 0.00 | 41 | 1001.8 |
| 20260504212006 | 62 | 5 | 1.0 | 5.0 | 0.00 | 0.00 | 0.00 | 43 | 1002.0 |
| 20260504211505 | 62 | 21 | 1.0 | 7.0 | 0.00 | 0.00 | 0.00 | 43 | 1002.1 |
| 20260504210005 | 62 | 327 | 5.0 | 20.0 | 0.00 | 0.00 | 0.00 | 43 | 1002.2 |
| 20260504205504 | 62 | 345 | 6.0 | 20.0 | 0.00 | 0.00 | 0.00 | 42 | 1002.2 |
| 20260504205005 | 63 | 31 | 6.0 | 21.0 | 0.00 | 0.00 | 0.00 | 42 | 1002.1 |
| 20260504204005 | 63 | 341 | 7.0 | 25.0 | 0.00 | 0.00 | 0.00 | 40 | 1001.8 |
| 20260504203506 | 64 | 3 | 7.0 | 25.0 | 0.00 | 0.00 | 0.00 | 38 | 1001.6 |
| 20260504203005 | 64 | 348 | 5.0 | 20.0 | 0.00 | 0.00 | 0.00 | 37 | 1001.4 |
| 20260504202505 | 64 | 357 | 8.0 | 20.0 | 0.00 | 0.00 | 0.00 | 37 | 1001.2 |
| 20260504202005 | 64 | 48 | 10.0 | 20.0 | 0.00 | 0.00 | 0.00 | 37 | 1001.1 |
| 20260504201505 | 62 | 26 | 10.0 | 20.0 | 0.00 | 0.00 | 0.00 | 39 | 1001.2 |
| 20260504201005 | 62 | 35 | 6.0 | 24.0 | 0.00 | 0.00 | 0.00 | 40 | 1001.3 |
| 20260504200505 | 62 | 34 | 10.0 | 29.0 | 0.00 | 0.00 | 0.00 | 38 | 1001.3 |
| 20260504200005 | 63 | 43 | 14.0 | 29.0 | 0.00 | 0.00 | 0.00 | 37 | 1001.2 |
| 20260504195504 | 64 | 44 | 10.0 | 22.0 | 0.00 | 0.00 | 0.00 | 35 | 1001.1 |
| 20260504195006 | 65 | 34 | 7.0 | 20.0 | 0.00 | 0.00 | 0.00 | 33 | 1001.1 |
| 20260504194506 | 67 | 2 | 5.0 | 20.0 | 0.00 | 0.00 | 0.00 | 28 | 1001.1 |
| 20260504194004 | 67 | 24 | 6.0 | 26.0 | 0.00 | 0.00 | 0.00 | 25 | 1000.7 |
| 20260504193504 | 67 | 33 | 13.0 | 26.0 | 0.00 | 0.00 | 0.00 | 25 | 1001.0 |
| 20260504193004 | 67 | 336 | 8.0 | 23.0 | 0.00 | 0.00 | 0.00 | 24 | 1000.7 |
| 20260504192504 | 67 | 340 | 11.0 | 23.0 | 0.00 | 0.00 | 0.00 | 24 | 1000.7 |
| 20260504192004 | 67 | 326 | 10.0 | 21.0 | 0.00 | 0.00 | 0.00 | 24 | 1000.8 |
| 20260504191505 | 67 | 292 | 6.0 | 24.0 | 0.00 | 0.00 | 0.00 | 29 | 1000.7 |
| 20260504191006 | 67 | 277 | 12.0 | 26.0 | 0.00 | 0.00 | 0.00 | 29 | 1000.8 |
| 20260504185504 | 68 | 285 | 13.0 | 22.0 | 0.00 | 0.00 | 0.00 | 28 | 1000.8 |
| 20260504184505 | 69 | 302 | 11.0 | 20.0 | 0.00 | 0.00 | 0.00 | 28 | 1000.9 |
| 20260504184004 | 69 | 300 | 8.0 | 18.0 | 0.00 | 0.00 | 0.00 | 28 | 1000.7 |
| 20260504183505 | 69 | 285 | 10.0 | 18.0 | 0.00 | 0.00 | 0.00 | 26 | 1000.8 |
| 20260504183005 | 69 | 293 | 6.0 | 12.0 | 0.00 | 0.00 | 0.00 | 27 | 1000.8 |
| 20260504182504 | 69 | 260 | 5.0 | 15.0 | 0.00 | 0.00 | 0.00 | 27 | 1000.8 |
| 20260504182005 | 68 | 237 | 4.0 | 15.0 | 0.00 | 0.00 | 0.00 | 28 | 1000.8 |
| 20260504181504 | 69 | 237 | 6.0 | 15.0 | 0.00 | 0.00 | 0.00 | 27 | 1000.8 |
| 20260504181004 | 69 | 232 | 6.0 | 12.0 | 0.00 | 0.00 | 0.00 | 27 | 1000.9 |
| 20260504180506 | 69 | 231 | 7.0 | 12.0 | 0.00 | 0.00 | 0.00 | 28 | 1000.9 |
| 20260504175505 | 69 | 213 | 6.0 | 13.0 | 0.00 | 0.00 | 0.00 | 29 | 1001.0 |
| 20260504174504 | 69 | 235 | 3.0 | 9.0 | 0.00 | 0.00 | 0.00 | 27 | 1001.1 |
| 20260504174006 | 69 | 223 | 5.0 | 10.0 | 0.00 | 0.00 | 0.00 | 26 | 1001.2 |
| 20260504173504 | 69 | 248 | 5.0 | 10.0 | 0.00 | 0.00 | 0.00 | 26 | 1001.3 |